Terminal Aerodrome Forecast
Issued by NWS Paducah, KY

Home | Current Version | Previous Version | Text Only | Print | Product List | Glossary On
Versions: 1 2 3 4 5 6 7 8 9 10 11 12 13 14 15 16 17 18 19 20
000
FTUS43 KPAH 262300
TAFEVV
TAF
KEVV 262340Z 2700/2724 17006KT P6SM FEW045 BKN250
     FM271100 18006KT 6SM -SHRA BR BKN025 OVC040
     FM271300 18006KT 4SM SHRA BR OVC012
     FM271600 20006KT 3SM RA BR OVC006=

USA.gov is the U.S. government's official web portal to all federal, state and local government web resources and services.